sensor_id;sensor_type;location;lat;lon;timestamp;P1;durP1;ratioP1;P2;durP2;ratioP2
15067;SDS011;7633;60.024;18.770;2023-06-26T00:02:21;1.67;;;1.58;;
15067;SDS011;7633;60.024;18.770;2023-06-26T00:04:47;1.43;;;1.33;;
15067;SDS011;7633;60.024;18.770;2023-06-26T00:07:12;1.77;;;1.57;;
15067;SDS011;7633;60.024;18.770;2023-06-26T00:09:37;2.17;;;1.70;;
15067;SDS011;7633;60.024;18.770;2023-06-26T00:12:03;2.33;;;1.73;;
15067;SDS011;7633;60.024;18.770;2023-06-26T00:14:28;2.30;;;2.10;;
15067;SDS011;7633;60.024;18.770;2023-06-26T00:16:53;2.53;;;1.93;;
15067;SDS011;7633;60.024;18.770;2023-06-26T00:19:19;2.93;;;2.00;;
15067;SDS011;7633;60.024;18.770;2023-06-26T00:21:44;2.03;;;1.80;;
15067;SDS011;7633;60.024;18.770;2023-06-26T00:24:16;3.13;;;2.00;;
15067;SDS011;7633;60.024;18.770;2023-06-26T00:26:42;1.67;;;1.57;;
15067;SDS011;7633;60.024;18.770;2023-06-26T00:29:07;3.30;;;1.30;;
15067;SDS011;7633;60.024;18.770;2023-06-26T00:31:32;2.17;;;1.70;;
15067;SDS011;7633;60.024;18.770;2023-06-26T00:33:58;1.63;;;1.53;;
15067;SDS011;7633;60.024;18.770;2023-06-26T00:36:23;1.90;;;1.67;;
15067;SDS011;7633;60.024;18.770;2023-06-26T00:38:52;3.30;;;1.83;;
15067;SDS011;7633;60.024;18.770;2023-06-26T00:41:17;2.37;;;1.63;;
15067;SDS011;7633;60.024;18.770;2023-06-26T00:43:43;2.57;;;1.70;;
15067;SDS011;7633;60.024;18.770;2023-06-26T00:46:10;1.90;;;1.70;;
15067;SDS011;7633;60.024;18.770;2023-06-26T00:48:41;1.40;;;1.30;;
15067;SDS011;7633;60.024;18.770;2023-06-26T00:51:14;1.40;;;1.30;;
15067;SDS011;7633;60.024;18.770;2023-06-26T00:53:47;1.52;;;1.42;;
15067;SDS011;7633;60.024;18.770;2023-06-26T00:56:13;1.60;;;1.45;;
15067;SDS011;7633;60.024;18.770;2023-06-26T00:58:40;1.40;;;1.30;;
15067;SDS011;7633;60.024;18.770;2023-06-26T01:01:06;1.97;;;1.70;;
15067;SDS011;7633;60.024;18.770;2023-06-26T01:03:34;1.70;;;1.60;;
15067;SDS011;7633;60.024;18.770;2023-06-26T01:06:01;2.07;;;1.40;;
15067;SDS011;7633;60.024;18.770;2023-06-26T01:08:27;2.00;;;1.53;;
15067;SDS011;7633;60.024;18.770;2023-06-26T01:10:52;3.13;;;1.63;;
15067;SDS011;7633;60.024;18.770;2023-06-26T01:13:18;1.63;;;1.50;;
15067;SDS011;7633;60.024;18.770;2023-06-26T01:15:43;2.00;;;1.80;;
15067;SDS011;7633;60.024;18.770;2023-06-26T01:18:10;1.77;;;1.30;;
15067;SDS011;7633;60.024;18.770;2023-06-26T01:20:35;1.50;;;1.40;;
15067;SDS011;7633;60.024;18.770;2023-06-26T01:25:41;1.30;;;1.20;;
15067;SDS011;7633;60.024;18.770;2023-06-26T01:28:15;1.70;;;1.60;;
15067;SDS011;7633;60.024;18.770;2023-06-26T01:30:42;1.90;;;1.80;;
15067;SDS011;7633;60.024;18.770;2023-06-26T01:33:09;1.83;;;1.30;;
15067;SDS011;7633;60.024;18.770;2023-06-26T01:35:34;1.80;;;1.70;;
15067;SDS011;7633;60.024;18.770;2023-06-26T01:38:16;1.63;;;1.53;;
15067;SDS011;7633;60.024;18.770;2023-06-26T01:40:42;2.67;;;1.70;;
15067;SDS011;7633;60.024;18.770;2023-06-26T01:43:10;2.70;;;1.80;;
15067;SDS011;7633;60.024;18.770;2023-06-26T01:45:38;2.10;;;1.90;;
15067;SDS011;7633;60.024;18.770;2023-06-26T01:48:04;2.67;;;2.00;;
15067;SDS011;7633;60.024;18.770;2023-06-26T01:50:31;2.20;;;2.00;;
15067;SDS011;7633;60.024;18.770;2023-06-26T01:53:04;2.33;;;1.70;;
15067;SDS011;7633;60.024;18.770;2023-06-26T01:58:01;5.03;;;2.50;;
15067;SDS011;7633;60.024;18.770;2023-06-26T02:00:27;5.27;;;2.87;;
15067;SDS011;7633;60.024;18.770;2023-06-26T02:02:53;3.13;;;2.00;;
15067;SDS011;7633;60.024;18.770;2023-06-26T02:05:18;8.10;;;3.43;;
15067;SDS011;7633;60.024;18.770;2023-06-26T02:07:43;8.63;;;3.27;;
15067;SDS011;7633;60.024;18.770;2023-06-26T02:10:09;5.87;;;2.90;;
15067;SDS011;7633;60.024;18.770;2023-06-26T02:12:35;3.57;;;3.27;;
15067;SDS011;7633;60.024;18.770;2023-06-26T02:15:01;5.03;;;3.20;;
15067;SDS011;7633;60.024;18.770;2023-06-26T02:17:27;3.47;;;2.70;;
15067;SDS011;7633;60.024;18.770;2023-06-26T02:19:52;6.40;;;3.33;;
15067;SDS011;7633;60.024;18.770;2023-06-26T02:22:17;2.70;;;2.50;;
15067;SDS011;7633;60.024;18.770;2023-06-26T02:24:43;2.70;;;2.50;;
15067;SDS011;7633;60.024;18.770;2023-06-26T02:27:08;3.90;;;3.20;;
15067;SDS011;7633;60.024;18.770;2023-06-26T02:29:34;3.20;;;2.90;;
15067;SDS011;7633;60.024;18.770;2023-06-26T02:32:00;4.10;;;3.60;;
15067;SDS011;7633;60.024;18.770;2023-06-26T02:34:25;3.80;;;3.30;;
15067;SDS011;7633;60.024;18.770;2023-06-26T02:36:51;4.20;;;3.27;;
15067;SDS011;7633;60.024;18.770;2023-06-26T02:39:19;3.90;;;3.30;;
15067;SDS011;7633;60.024;18.770;2023-06-26T02:41:45;4.30;;;3.90;;
15067;SDS011;7633;60.024;18.770;2023-06-26T02:44:10;3.90;;;3.13;;
15067;SDS011;7633;60.024;18.770;2023-06-26T02:46:37;3.53;;;3.23;;
15067;SDS011;7633;60.024;18.770;2023-06-26T02:49:02;3.87;;;2.97;;
15067;SDS011;7633;60.024;18.770;2023-06-26T02:51:28;3.20;;;2.80;;
15067;SDS011;7633;60.024;18.770;2023-06-26T02:53:53;3.63;;;3.27;;
15067;SDS011;7633;60.024;18.770;2023-06-26T02:56:18;3.27;;;2.83;;
15067;SDS011;7633;60.024;18.770;2023-06-26T02:58:44;2.80;;;2.47;;
15067;SDS011;7633;60.024;18.770;2023-06-26T03:01:09;3.23;;;2.63;;
15067;SDS011;7633;60.024;18.770;2023-06-26T03:03:34;3.90;;;3.20;;
15067;SDS011;7633;60.024;18.770;2023-06-26T03:06:06;2.87;;;2.67;;
15067;SDS011;7633;60.024;18.770;2023-06-26T03:08:32;2.97;;;2.50;;
15067;SDS011;7633;60.024;18.770;2023-06-26T03:10:58;2.90;;;2.63;;
15067;SDS011;7633;60.024;18.770;2023-06-26T03:13:23;3.53;;;3.00;;
15067;SDS011;7633;60.024;18.770;2023-06-26T03:15:48;3.23;;;2.70;;
15067;SDS011;7633;60.024;18.770;2023-06-26T03:18:14;3.63;;;2.63;;
15067;SDS011;7633;60.024;18.770;2023-06-26T03:20:39;3.03;;;2.73;;
15067;SDS011;7633;60.024;18.770;2023-06-26T03:23:05;2.55;;;2.35;;
15067;SDS011;7633;60.024;18.770;2023-06-26T03:25:30;3.47;;;3.00;;
15067;SDS011;7633;60.024;18.770;2023-06-26T03:27:56;2.55;;;2.30;;
15067;SDS011;7633;60.024;18.770;2023-06-26T03:30:21;3.33;;;3.03;;
15067;SDS011;7633;60.024;18.770;2023-06-26T03:32:47;3.97;;;3.30;;
15067;SDS011;7633;60.024;18.770;2023-06-26T03:35:12;4.15;;;3.63;;
15067;SDS011;7633;60.024;18.770;2023-06-26T03:37:37;3.47;;;3.17;;
15067;SDS011;7633;60.024;18.770;2023-06-26T03:40:03;3.00;;;2.70;;
15067;SDS011;7633;60.024;18.770;2023-06-26T03:42:29;3.22;;;2.92;;
15067;SDS011;7633;60.024;18.770;2023-06-26T03:44:55;3.15;;;2.80;;
15067;SDS011;7633;60.024;18.770;2023-06-26T03:47:20;3.67;;;3.20;;
15067;SDS011;7633;60.024;18.770;2023-06-26T03:49:46;3.17;;;2.88;;
15067;SDS011;7633;60.024;18.770;2023-06-26T03:52:11;3.88;;;3.58;;
15067;SDS011;7633;60.024;18.770;2023-06-26T03:54:37;3.05;;;2.85;;
15067;SDS011;7633;60.024;18.770;2023-06-26T03:57:02;3.03;;;2.78;;
15067;SDS011;7633;60.024;18.770;2023-06-26T03:59:27;3.28;;;2.95;;
15067;SDS011;7633;60.024;18.770;2023-06-26T04:01:53;3.28;;;2.97;;
15067;SDS011;7633;60.024;18.770;2023-06-26T04:04:18;2.90;;;2.70;;
15067;SDS011;7633;60.024;18.770;2023-06-26T04:06:43;2.90;;;2.70;;
15067;SDS011;7633;60.024;18.770;2023-06-26T04:09:09;2.75;;;2.55;;
15067;SDS011;7633;60.024;18.770;2023-06-26T04:11:34;2.92;;;2.70;;
15067;SDS011;7633;60.024;18.770;2023-06-26T04:13:59;2.67;;;2.47;;
15067;SDS011;7633;60.024;18.770;2023-06-26T04:16:25;2.63;;;2.42;;
15067;SDS011;7633;60.024;18.770;2023-06-26T04:18:51;2.97;;;2.75;;
15067;SDS011;7633;60.024;18.770;2023-06-26T04:21:17;2.45;;;2.25;;
15067;SDS011;7633;60.024;18.770;2023-06-26T04:23:43;2.22;;;2.13;;
15067;SDS011;7633;60.024;18.770;2023-06-26T04:26:08;2.63;;;2.42;;
15067;SDS011;7633;60.024;18.770;2023-06-26T04:28:35;2.67;;;2.47;;
15067;SDS011;7633;60.024;18.770;2023-06-26T04:31:01;2.75;;;2.50;;
15067;SDS011;7633;60.024;18.770;2023-06-26T04:33:26;2.50;;;2.30;;
15067;SDS011;7633;60.024;18.770;2023-06-26T04:35:52;2.55;;;2.35;;
15067;SDS011;7633;60.024;18.770;2023-06-26T04:38:18;2.15;;;2.03;;
15067;SDS011;7633;60.024;18.770;2023-06-26T04:40:43;2.42;;;2.28;;
15067;SDS011;7633;60.024;18.770;2023-06-26T04:43:09;2.50;;;2.30;;
15067;SDS011;7633;60.024;18.770;2023-06-26T04:45:34;2.35;;;2.15;;
15067;SDS011;7633;60.024;18.770;2023-06-26T04:48:00;2.22;;;2.13;;
15067;SDS011;7633;60.024;18.770;2023-06-26T04:50:25;2.40;;;2.20;;
15067;SDS011;7633;60.024;18.770;2023-06-26T04:52:56;1.90;;;1.80;;
15067;SDS011;7633;60.024;18.770;2023-06-26T04:55:25;2.20;;;2.10;;
15067;SDS011;7633;60.024;18.770;2023-06-26T04:57:51;2.03;;;1.92;;
15067;SDS011;7633;60.024;18.770;2023-06-26T05:00:17;1.80;;;1.70;;
15067;SDS011;7633;60.024;18.770;2023-06-26T05:02:43;1.90;;;1.80;;
15067;SDS011;7633;60.024;18.770;2023-06-26T05:05:09;1.98;;;1.88;;
15067;SDS011;7633;60.024;18.770;2023-06-26T05:07:35;1.98;;;1.88;;
15067;SDS011;7633;60.024;18.770;2023-06-26T05:10:01;1.80;;;1.70;;
15067;SDS011;7633;60.024;18.770;2023-06-26T05:12:27;1.98;;;1.88;;
15067;SDS011;7633;60.024;18.770;2023-06-26T05:14:52;2.17;;;2.00;;
15067;SDS011;7633;60.024;18.770;2023-06-26T05:17:18;1.80;;;1.70;;
15067;SDS011;7633;60.024;18.770;2023-06-26T05:19:43;1.95;;;1.85;;
15067;SDS011;7633;60.024;18.770;2023-06-26T05:22:10;1.55;;;1.45;;
15067;SDS011;7633;60.024;18.770;2023-06-26T05:24:37;2.17;;;1.85;;
15067;SDS011;7633;60.024;18.770;2023-06-26T05:27:03;1.20;;;1.20;;
15067;SDS011;7633;60.024;18.770;2023-06-26T05:29:30;1.70;;;1.60;;
15067;SDS011;7633;60.024;18.770;2023-06-26T05:31:56;1.50;;;1.40;;
15067;SDS011;7633;60.024;18.770;2023-06-26T05:34:22;1.50;;;1.40;;
15067;SDS011;7633;60.024;18.770;2023-06-26T05:36:47;1.60;;;1.50;;
15067;SDS011;7633;60.024;18.770;2023-06-26T05:39:15;1.30;;;1.20;;
15067;SDS011;7633;60.024;18.770;2023-06-26T05:41:41;1.30;;;1.30;;
15067;SDS011;7633;60.024;18.770;2023-06-26T05:44:06;1.20;;;1.20;;
15067;SDS011;7633;60.024;18.770;2023-06-26T05:46:32;1.58;;;1.48;;
15067;SDS011;7633;60.024;18.770;2023-06-26T05:48:57;1.60;;;1.50;;
15067;SDS011;7633;60.024;18.770;2023-06-26T05:51:23;1.88;;;1.58;;
15067;SDS011;7633;60.024;18.770;2023-06-26T05:53:49;1.50;;;1.40;;
15067;SDS011;7633;60.024;18.770;2023-06-26T05:56:15;1.50;;;1.40;;
15067;SDS011;7633;60.024;18.770;2023-06-26T05:58:40;1.95;;;1.50;;
15067;SDS011;7633;60.024;18.770;2023-06-26T06:01:07;1.60;;;1.50;;
15067;SDS011;7633;60.024;18.770;2023-06-26T06:03:32;1.50;;;1.40;;
15067;SDS011;7633;60.024;18.770;2023-06-26T06:05:58;1.40;;;1.30;;
15067;SDS011;7633;60.024;18.770;2023-06-26T06:08:23;1.42;;;1.33;;
15067;SDS011;7633;60.024;18.770;2023-06-26T06:10:49;1.00;;;1.00;;
15067;SDS011;7633;60.024;18.770;2023-06-26T06:13:14;1.40;;;1.30;;
15067;SDS011;7633;60.024;18.770;2023-06-26T06:15:40;1.35;;;1.25;;
15067;SDS011;7633;60.024;18.770;2023-06-26T06:18:05;1.73;;;1.50;;
15067;SDS011;7633;60.024;18.770;2023-06-26T06:20:31;1.23;;;1.20;;
15067;SDS011;7633;60.024;18.770;2023-06-26T06:22:57;1.20;;;1.20;;
15067;SDS011;7633;60.024;18.770;2023-06-26T06:25:23;1.90;;;1.35;;
15067;SDS011;7633;60.024;18.770;2023-06-26T06:27:48;1.30;;;1.20;;
15067;SDS011;7633;60.024;18.770;2023-06-26T06:30:13;1.40;;;1.30;;
15067;SDS011;7633;60.024;18.770;2023-06-26T06:32:39;1.17;;;1.10;;
15067;SDS011;7633;60.024;18.770;2023-06-26T06:35:04;1.42;;;1.33;;
15067;SDS011;7633;60.024;18.770;2023-06-26T06:37:34;1.48;;;1.20;;
15067;SDS011;7633;60.024;18.770;2023-06-26T06:40:00;1.50;;;1.40;;
15067;SDS011;7633;60.024;18.770;2023-06-26T06:42:25;1.65;;;1.40;;
15067;SDS011;7633;60.024;18.770;2023-06-26T06:44:51;1.42;;;1.33;;
15067;SDS011;7633;60.024;18.770;2023-06-26T06:47:16;1.40;;;1.30;;
15067;SDS011;7633;60.024;18.770;2023-06-26T06:49:42;1.50;;;1.40;;
15067;SDS011;7633;60.024;18.770;2023-06-26T06:52:07;1.40;;;1.30;;
15067;SDS011;7633;60.024;18.770;2023-06-26T06:54:33;1.40;;;1.30;;
15067;SDS011;7633;60.024;18.770;2023-06-26T06:57:15;1.10;;;1.10;;
15067;SDS011;7633;60.024;18.770;2023-06-26T06:59:41;1.30;;;1.20;;
15067;SDS011;7633;60.024;18.770;2023-06-26T07:02:07;1.40;;;1.30;;
15067;SDS011;7633;60.024;18.770;2023-06-26T07:04:32;1.40;;;1.30;;
15067;SDS011;7633;60.024;18.770;2023-06-26T07:06:58;1.17;;;1.13;;
15067;SDS011;7633;60.024;18.770;2023-06-26T07:09:23;1.27;;;1.17;;
15067;SDS011;7633;60.024;18.770;2023-06-26T07:11:48;1.23;;;1.13;;
15067;SDS011;7633;60.024;18.770;2023-06-26T07:14:14;1.67;;;1.58;;
15067;SDS011;7633;60.024;18.770;2023-06-26T07:16:39;1.30;;;1.20;;
15067;SDS011;7633;60.024;18.770;2023-06-26T07:19:05;1.35;;;1.25;;
15067;SDS011;7633;60.024;18.770;2023-06-26T07:21:30;1.60;;;1.40;;
15067;SDS011;7633;60.024;18.770;2023-06-26T07:23:56;1.30;;;1.20;;
15067;SDS011;7633;60.024;18.770;2023-06-26T07:26:21;1.25;;;1.20;;
15067;SDS011;7633;60.024;18.770;2023-06-26T07:28:47;1.17;;;1.13;;
15067;SDS011;7633;60.024;18.770;2023-06-26T07:31:14;1.85;;;1.45;;
15067;SDS011;7633;60.024;18.770;2023-06-26T07:33:42;1.58;;;1.45;;
15067;SDS011;7633;60.024;18.770;2023-06-26T07:36:07;1.40;;;1.30;;
15067;SDS011;7633;60.024;18.770;2023-06-26T07:38:32;1.08;;;1.08;;
15067;SDS011;7633;60.024;18.770;2023-06-26T07:40:58;1.48;;;1.38;;
15067;SDS011;7633;60.024;18.770;2023-06-26T07:43:23;1.40;;;1.30;;
15067;SDS011;7633;60.024;18.770;2023-06-26T07:45:49;1.50;;;1.40;;
15067;SDS011;7633;60.024;18.770;2023-06-26T07:48:16;1.60;;;1.50;;
15067;SDS011;7633;60.024;18.770;2023-06-26T07:50:42;1.75;;;1.65;;
15067;SDS011;7633;60.024;18.770;2023-06-26T07:53:07;1.67;;;1.58;;
15067;SDS011;7633;60.024;18.770;2023-06-26T07:55:32;1.50;;;1.40;;
15067;SDS011;7633;60.024;18.770;2023-06-26T07:58:01;1.60;;;1.50;;
15067;SDS011;7633;60.024;18.770;2023-06-26T08:00:29;1.40;;;1.30;;
15067;SDS011;7633;60.024;18.770;2023-06-26T08:02:59;1.30;;;1.30;;
15067;SDS011;7633;60.024;18.770;2023-06-26T08:05:24;1.70;;;1.60;;
15067;SDS011;7633;60.024;18.770;2023-06-26T08:07:49;1.85;;;1.75;;
15067;SDS011;7633;60.024;18.770;2023-06-26T08:10:16;1.83;;;1.73;;
15067;SDS011;7633;60.024;18.770;2023-06-26T08:12:42;1.70;;;1.60;;
15067;SDS011;7633;60.024;18.770;2023-06-26T08:15:10;1.98;;;1.88;;
15067;SDS011;7633;60.024;18.770;2023-06-26T08:17:36;1.80;;;1.70;;
15067;SDS011;7633;60.024;18.770;2023-06-26T08:20:02;1.80;;;1.70;;
15067;SDS011;7633;60.024;18.770;2023-06-26T08:22:27;1.70;;;1.60;;
15067;SDS011;7633;60.024;18.770;2023-06-26T08:24:53;1.73;;;1.63;;
15067;SDS011;7633;60.024;18.770;2023-06-26T08:27:18;1.65;;;1.55;;
15067;SDS011;7633;60.024;18.770;2023-06-26T08:29:45;1.67;;;1.58;;
15067;SDS011;7633;60.024;18.770;2023-06-26T08:32:13;1.88;;;1.77;;
15067;SDS011;7633;60.024;18.770;2023-06-26T08:34:38;1.60;;;1.50;;
15067;SDS011;7633;60.024;18.770;2023-06-26T08:37:04;1.70;;;1.60;;
15067;SDS011;7633;60.024;18.770;2023-06-26T08:39:29;1.60;;;1.50;;
15067;SDS011;7633;60.024;18.770;2023-06-26T08:41:55;1.95;;;1.73;;
15067;SDS011;7633;60.024;18.770;2023-06-26T08:44:20;1.90;;;1.80;;
15067;SDS011;7633;60.024;18.770;2023-06-26T08:46:50;1.52;;;1.42;;
15067;SDS011;7633;60.024;18.770;2023-06-26T08:49:25;1.92;;;1.80;;
15067;SDS011;7633;60.024;18.770;2023-06-26T08:52:00;1.60;;;1.50;;
15067;SDS011;7633;60.024;18.770;2023-06-26T08:54:28;1.40;;;1.30;;
15067;SDS011;7633;60.024;18.770;2023-06-26T08:56:55;1.60;;;1.50;;
15067;SDS011;7633;60.024;18.770;2023-06-26T08:59:21;1.40;;;1.30;;
15067;SDS011;7633;60.024;18.770;2023-06-26T09:01:46;1.42;;;1.33;;
15067;SDS011;7633;60.024;18.770;2023-06-26T09:04:12;1.58;;;1.42;;
15067;SDS011;7633;60.024;18.770;2023-06-26T09:06:39;1.40;;;1.30;;
15067;SDS011;7633;60.024;18.770;2023-06-26T09:09:04;1.63;;;1.52;;
15067;SDS011;7633;60.024;18.770;2023-06-26T09:11:30;1.60;;;1.50;;
15067;SDS011;7633;60.024;18.770;2023-06-26T09:13:56;1.50;;;1.40;;
15067;SDS011;7633;60.024;18.770;2023-06-26T09:16:25;1.20;;;1.20;;
15067;SDS011;7633;60.024;18.770;2023-06-26T09:18:52;1.27;;;1.27;;
15067;SDS011;7633;60.024;18.770;2023-06-26T09:21:17;1.60;;;1.50;;
15067;SDS011;7633;60.024;18.770;2023-06-26T09:23:43;1.58;;;1.42;;
15067;SDS011;7633;60.024;18.770;2023-06-26T09:26:09;1.50;;;1.40;;
15067;SDS011;7633;60.024;18.770;2023-06-26T09:28:35;1.48;;;1.38;;
15067;SDS011;7633;60.024;18.770;2023-06-26T09:31:02;1.80;;;1.70;;
15067;SDS011;7633;60.024;18.770;2023-06-26T09:33:33;1.50;;;1.40;;
15067;SDS011;7633;60.024;18.770;2023-06-26T09:35:59;1.63;;;1.52;;
15067;SDS011;7633;60.024;18.770;2023-06-26T09:38:25;1.75;;;1.65;;
15067;SDS011;7633;60.024;18.770;2023-06-26T09:40:52;2.03;;;1.60;;
15067;SDS011;7633;60.024;18.770;2023-06-26T09:43:17;1.60;;;1.50;;
15067;SDS011;7633;60.024;18.770;2023-06-26T09:45:44;1.70;;;1.60;;
15067;SDS011;7633;60.024;18.770;2023-06-26T09:48:09;1.65;;;1.55;;
15067;SDS011;7633;60.024;18.770;2023-06-26T09:50:37;1.33;;;1.23;;
15067;SDS011;7633;60.024;18.770;2023-06-26T09:53:10;1.60;;;1.50;;
15067;SDS011;7633;60.024;18.770;2023-06-26T09:55:36;1.80;;;1.70;;
15067;SDS011;7633;60.024;18.770;2023-06-26T09:58:03;1.67;;;1.58;;
15067;SDS011;7633;60.024;18.770;2023-06-26T10:00:30;1.80;;;1.70;;
15067;SDS011;7633;60.024;18.770;2023-06-26T10:02:57;1.77;;;1.67;;
15067;SDS011;7633;60.024;18.770;2023-06-26T10:05:23;2.25;;;2.15;;
15067;SDS011;7633;60.024;18.770;2023-06-26T10:07:48;1.95;;;1.85;;
15067;SDS011;7633;60.024;18.770;2023-06-26T10:10:14;2.03;;;1.92;;
15067;SDS011;7633;60.024;18.770;2023-06-26T10:12:41;2.50;;;1.95;;
15067;SDS011;7633;60.024;18.770;2023-06-26T10:15:10;1.75;;;1.65;;
15067;SDS011;7633;60.024;18.770;2023-06-26T10:17:37;1.48;;;1.38;;
15067;SDS011;7633;60.024;18.770;2023-06-26T10:20:07;1.77;;;1.67;;
15067;SDS011;7633;60.024;18.770;2023-06-26T10:22:36;1.08;;;1.08;;
15067;SDS011;7633;60.024;18.770;2023-06-26T10:25:02;1.50;;;1.40;;
15067;SDS011;7633;60.024;18.770;2023-06-26T10:27:33;1.48;;;1.38;;
15067;SDS011;7633;60.024;18.770;2023-06-26T10:30:02;1.42;;;1.30;;
15067;SDS011;7633;60.024;18.770;2023-06-26T10:32:29;1.30;;;1.20;;
15067;SDS011;7633;60.024;18.770;2023-06-26T10:34:55;1.27;;;1.10;;
15067;SDS011;7633;60.024;18.770;2023-06-26T10:37:21;1.05;;;1.05;;
15067;SDS011;7633;60.024;18.770;2023-06-26T10:39:47;1.13;;;1.02;;
15067;SDS011;7633;60.024;18.770;2023-06-26T10:42:17;0.90;;;0.90;;
15067;SDS011;7633;60.024;18.770;2023-06-26T10:44:44;0.90;;;0.90;;
15067;SDS011;7633;60.024;18.770;2023-06-26T10:47:10;0.85;;;0.80;;
15067;SDS011;7633;60.024;18.770;2023-06-26T10:49:36;1.00;;;1.00;;
15067;SDS011;7633;60.024;18.770;2023-06-26T10:52:02;0.90;;;0.90;;
15067;SDS011;7633;60.024;18.770;2023-06-26T10:54:31;0.90;;;0.90;;
15067;SDS011;7633;60.024;18.770;2023-06-26T10:56:56;0.80;;;0.80;;
15067;SDS011;7633;60.024;18.770;2023-06-26T10:59:24;0.77;;;0.77;;
15067;SDS011;7633;60.024;18.770;2023-06-26T11:01:59;0.75;;;0.75;;
15067;SDS011;7633;60.024;18.770;2023-06-26T11:04:38;1.42;;;0.95;;
15067;SDS011;7633;60.024;18.770;2023-06-26T11:07:20;0.70;;;0.70;;
15067;SDS011;7633;60.024;18.770;2023-06-26T11:10:02;0.98;;;0.98;;
15067;SDS011;7633;60.024;18.770;2023-06-26T11:12:35;0.85;;;0.85;;
15067;SDS011;7633;60.024;18.770;2023-06-26T11:15:07;0.90;;;0.90;;
15067;SDS011;7633;60.024;18.770;2023-06-26T11:17:33;0.77;;;0.77;;
15067;SDS011;7633;60.024;18.770;2023-06-26T11:19:59;1.02;;;0.93;;
15067;SDS011;7633;60.024;18.770;2023-06-26T11:22:25;0.82;;;0.82;;
15067;SDS011;7633;60.024;18.770;2023-06-26T11:24:52;0.80;;;0.80;;
15067;SDS011;7633;60.024;18.770;2023-06-26T11:27:18;0.82;;;0.82;;
15067;SDS011;7633;60.024;18.770;2023-06-26T11:29:48;0.82;;;0.82;;
15067;SDS011;7633;60.024;18.770;2023-06-26T11:32:15;0.95;;;0.75;;
15067;SDS011;7633;60.024;18.770;2023-06-26T11:34:40;0.70;;;0.70;;
15067;SDS011;7633;60.024;18.770;2023-06-26T11:37:08;0.80;;;0.80;;
15067;SDS011;7633;60.024;18.770;2023-06-26T11:39:34;1.02;;;0.90;;
15067;SDS011;7633;60.024;18.770;2023-06-26T11:42:00;0.68;;;0.68;;
15067;SDS011;7633;60.024;18.770;2023-06-26T11:44:30;1.00;;;1.00;;
15067;SDS011;7633;60.024;18.770;2023-06-26T11:46:58;0.98;;;0.98;;
15067;SDS011;7633;60.024;18.770;2023-06-26T11:49:30;0.98;;;0.90;;
15067;SDS011;7633;60.024;18.770;2023-06-26T11:51:56;1.17;;;0.90;;
15067;SDS011;7633;60.024;18.770;2023-06-26T11:54:25;0.90;;;0.90;;
15067;SDS011;7633;60.024;18.770;2023-06-26T11:56:51;1.00;;;1.00;;
15067;SDS011;7633;60.024;18.770;2023-06-26T11:59:17;0.98;;;0.98;;
15067;SDS011;7633;60.024;18.770;2023-06-26T12:01:43;0.70;;;0.70;;
15067;SDS011;7633;60.024;18.770;2023-06-26T12:04:12;0.85;;;0.70;;
15067;SDS011;7633;60.024;18.770;2023-06-26T12:06:42;0.93;;;0.80;;
15067;SDS011;7633;60.024;18.770;2023-06-26T12:09:14;0.80;;;0.80;;
15067;SDS011;7633;60.024;18.770;2023-06-26T12:11:41;0.70;;;0.70;;
15067;SDS011;7633;60.024;18.770;2023-06-26T12:14:07;1.05;;;0.80;;
15067;SDS011;7633;60.024;18.770;2023-06-26T12:16:33;1.10;;;1.00;;
15067;SDS011;7633;60.024;18.770;2023-06-26T12:19:00;0.70;;;0.70;;
15067;SDS011;7633;60.024;18.770;2023-06-26T12:24:14;0.80;;;0.80;;
15067;SDS011;7633;60.024;18.770;2023-06-26T12:26:50;1.00;;;0.90;;
15067;SDS011;7633;60.024;18.770;2023-06-26T12:29:31;0.82;;;0.82;;
15067;SDS011;7633;60.024;18.770;2023-06-26T12:32:03;0.85;;;0.85;;
15067;SDS011;7633;60.024;18.770;2023-06-26T12:34:34;0.75;;;0.75;;
15067;SDS011;7633;60.024;18.770;2023-06-26T12:37:03;0.88;;;0.88;;
15067;SDS011;7633;60.024;18.770;2023-06-26T12:39:29;1.00;;;1.00;;
15067;SDS011;7633;60.024;18.770;2023-06-26T12:42:02;0.80;;;0.80;;
15067;SDS011;7633;60.024;18.770;2023-06-26T12:44:28;0.82;;;0.82;;
15067;SDS011;7633;60.024;18.770;2023-06-26T12:46:58;1.25;;;1.00;;
15067;SDS011;7633;60.024;18.770;2023-06-26T12:49:37;1.10;;;1.10;;
15067;SDS011;7633;60.024;18.770;2023-06-26T12:52:06;1.08;;;1.00;;
15067;SDS011;7633;60.024;18.770;2023-06-26T12:54:38;1.20;;;1.10;;
15067;SDS011;7633;60.024;18.770;2023-06-26T12:57:04;1.00;;;1.00;;
15067;SDS011;7633;60.024;18.770;2023-06-26T12:59:30;1.10;;;1.10;;
15067;SDS011;7633;60.024;18.770;2023-06-26T13:01:59;1.38;;;1.27;;
15067;SDS011;7633;60.024;18.770;2023-06-26T13:04:27;1.00;;;1.00;;
15067;SDS011;7633;60.024;18.770;2023-06-26T13:06:53;1.25;;;1.05;;
15067;SDS011;7633;60.024;18.770;2023-06-26T13:09:21;1.17;;;1.10;;
15067;SDS011;7633;60.024;18.770;2023-06-26T13:11:47;1.38;;;1.27;;
15067;SDS011;7633;60.024;18.770;2023-06-26T13:14:13;1.27;;;1.27;;
15067;SDS011;7633;60.024;18.770;2023-06-26T13:16:41;1.20;;;1.20;;
15067;SDS011;7633;60.024;18.770;2023-06-26T13:19:10;1.52;;;1.42;;
15067;SDS011;7633;60.024;18.770;2023-06-26T13:21:36;1.25;;;1.15;;
15067;SDS011;7633;60.024;18.770;2023-06-26T13:24:02;1.10;;;1.10;;
15067;SDS011;7633;60.024;18.770;2023-06-26T13:26:30;1.20;;;1.10;;
15067;SDS011;7633;60.024;18.770;2023-06-26T13:28:58;1.30;;;1.20;;
15067;SDS011;7633;60.024;18.770;2023-06-26T13:31:23;1.25;;;1.15;;
15067;SDS011;7633;60.024;18.770;2023-06-26T13:33:51;1.10;;;1.10;;
15067;SDS011;7633;60.024;18.770;2023-06-26T13:36:23;1.35;;;1.25;;
15067;SDS011;7633;60.024;18.770;2023-06-26T13:38:53;1.30;;;1.20;;
15067;SDS011;7633;60.024;18.770;2023-06-26T13:41:25;1.02;;;1.02;;
15067;SDS011;7633;60.024;18.770;2023-06-26T13:43:51;1.83;;;1.15;;
15067;SDS011;7633;60.024;18.770;2023-06-26T13:46:17;1.38;;;1.27;;
15067;SDS011;7633;60.024;18.770;2023-06-26T13:48:45;1.77;;;1.10;;
15067;SDS011;7633;60.024;18.770;2023-06-26T13:51:13;0.98;;;0.98;;
15067;SDS011;7633;60.024;18.770;2023-06-26T13:53:39;1.60;;;1.50;;
15067;SDS011;7633;60.024;18.770;2023-06-26T13:56:05;1.42;;;1.33;;
15067;SDS011;7633;60.024;18.770;2023-06-26T13:58:30;1.27;;;1.25;;
15067;SDS011;7633;60.024;18.770;2023-06-26T14:00:59;1.20;;;1.20;;
15067;SDS011;7633;60.024;18.770;2023-06-26T14:03:26;1.27;;;1.20;;
15067;SDS011;7633;60.024;18.770;2023-06-26T14:05:53;1.35;;;1.33;;
15067;SDS011;7633;60.024;18.770;2023-06-26T14:08:23;1.67;;;1.58;;
15067;SDS011;7633;60.024;18.770;2023-06-26T14:10:54;1.80;;;1.70;;
15067;SDS011;7633;60.024;18.770;2023-06-26T14:13:19;1.70;;;1.60;;
15067;SDS011;7633;60.024;18.770;2023-06-26T14:15:45;1.80;;;1.70;;
15067;SDS011;7633;60.024;18.770;2023-06-26T14:18:10;1.70;;;1.60;;
15067;SDS011;7633;60.024;18.770;2023-06-26T14:20:35;1.85;;;1.75;;
15067;SDS011;7633;60.024;18.770;2023-06-26T14:23:01;2.08;;;1.70;;
15067;SDS011;7633;60.024;18.770;2023-06-26T14:25:28;2.08;;;1.98;;
15067;SDS011;7633;60.024;18.770;2023-06-26T14:27:58;1.77;;;1.67;;
15067;SDS011;7633;60.024;18.770;2023-06-26T14:30:28;2.00;;;1.90;;
15067;SDS011;7633;60.024;18.770;2023-06-26T14:32:55;2.20;;;2.10;;
15067;SDS011;7633;60.024;18.770;2023-06-26T14:35:21;2.15;;;2.05;;
15067;SDS011;7633;60.024;18.770;2023-06-26T14:37:48;2.35;;;2.25;;
15067;SDS011;7633;60.024;18.770;2023-06-26T14:40:16;2.28;;;2.17;;
15067;SDS011;7633;60.024;18.770;2023-06-26T14:42:42;2.40;;;2.30;;
15067;SDS011;7633;60.024;18.770;2023-06-26T14:45:09;2.47;;;2.28;;
15067;SDS011;7633;60.024;18.770;2023-06-26T14:47:34;2.83;;;2.63;;
15067;SDS011;7633;60.024;18.770;2023-06-26T14:50:02;2.58;;;2.47;;
15067;SDS011;7633;60.024;18.770;2023-06-26T14:52:30;2.85;;;2.65;;
15067;SDS011;7633;60.024;18.770;2023-06-26T14:54:56;3.17;;;2.97;;